Evora, Portugal

6:38 AM WET on February 07, 2016 (GMT +0000)
IVORAEVO2 | | Change Station
CLOSE
Current Station
Personal Weather Station
Location: Sao Miguel de Machede, EVORA
Elevation: 796 ft
Nearby Weather Stations

Elev 796 ft 38.64 °N, 7.74 °W | Updated 6 seconds ago

Scattered Clouds
Scattered Clouds
49.1 °F
Feels Like 47 °F
N
5.7
Wind Variable Wind from WSW
Gusts 6.9 mph

Today
High -- | Low -- °F
--% Chance of Precip.
Yesterday
High -- | Low -- °F
Precip. -- in
Pressure 30.21 in
Visibility 6.2 miles
Clouds Few 1500 ft
Scattered Clouds 3000 ft
Windchill 47 °F
Dew Point -8 °F
Humidity 12%
Rainfall 0.00 in
Snow Depth Not available.
7:32 AM 5:59 PM
Waning Crescent, 2% visible
METAR LPBJ 070600Z 28007KT 9999 FEW015 SCT030 10/10 Q1023
Pressure 30.21 in
Visibility 6.2 miles
Clouds Few 1500 ft
Scattered Clouds 3000 ft
Windchill 47 °F
Dew Point -8 °F
Humidity 12%
Rainfall 0.00 in
Snow Depth Not available.
7:32 AM 5:59 PM
Waning Crescent, 2% visible
METAR LPBJ 070600Z 28007KT 9999 FEW015 SCT030 10/10 Q1023

10-Day Weather Forecast

Almanac

Astronomy

Feb. 07, 2016 Rise Set
Actual Time
Civil Twilight
Nautical Twilight
Astronomical Twilight
Moon
Length of Visible Light
Length of Day
Tomorrow will be .
, % of the Moon is Illuminated

Today's Extremes

Country Highs Country Lows

Community

WunderPhotos

Upload Photos

1,891,174 photos uploaded!

WunderBlog® & News

Nearby

Air Quality

  Air Quality AQ Index Pollutant
Not available.

Snow Depth

Station Depth Elevation

Earthquake Activity

City Distance Mag. Time & Date
Minimum magnitude displayed is 2.5.

Coastal Water Temperatures

Place Temperature

Stations

Nearby Weather Stations

Station Location Temp. Windchill Dew Point Humidity Wind Precip. Elev Updated Type